• Join FlightAware (Why Join?)
  • Login
  • US Flag 
11:39AM EDT


 

Airport Tracker/Info


-or-


 

Live Flight TrackerFlight Track Log ✈ SWA558 ✈ 14-May-2013 ✈ KRSW - KMDW

Flight Track Log - Related Links

Times and Time Zones

All times are in EDT time to prevent confusion due to time zone crossing. See the SWA558 flight status page for this flight to view local times or setup timezone preferences in your user account.

Time Position Orientation Groundspeed Altitude Reporting Facility
EDT Latitude Longitude Course Direction KTS MPH feet Rate Location/Type
12:26PM 26.6072 -81.7147 347° North 233 268 3,400  Level Miami Center
12:27PM 26.6761 -81.7197 356° North 243 280 5,700 2,880 Climbing Miami Center
12:28PM 26.7508 -81.7275 355° North 253 291 9,200 2,820 Climbing Miami Center
12:29PM 26.8342 -81.7381 354° North 277 319 11,400 2,400 Climbing Miami Center
12:30PM 26.9292 -81.7653 346° North 313 360 14,100 2,880 Climbing Miami Center
12:31PM 27.1439 -81.7860 347° North  Level FlightAware Approximate
12:31PM 27.0286 -81.7881 348° North 348 400 17,200  Level Miami Center
12:32PM 27.1322 -81.8089 350° North 377 434 19,500 2,340 Climbing Miami Center
12:33PM 27.2419 -81.8344 348° North 389 448 21,900 2,340 Climbing Miami Center
12:34PM 27.3536 -81.8628 347° North 395 455 24,200 2,100 Climbing Miami Center
12:35PM 27.4572 -81.8858 349° North 411 473 26,200 1,740 Climbing Miami Center
12:37PM 27.6331 -81.9275 348° North 416 479 28,600 1,500 Climbing Jacksonville Center
12:38PM 27.7669 -81.9592 348° North 433 498 30,000 2,160 Climbing Jacksonville Center
12:39PM 27.8839 -81.9981 344° North 433 498 33,000 1,860 Climbing Jacksonville Center
12:40PM 27.9928 -82.0325 344° North 415 478 33,700 960 Climbing Jacksonville Center
12:41PM 28.1033 -82.0667 345° North 415 478 35,000 660 Climbing Jacksonville Center
12:42PM 28.2142 -82.1033 344° North 415 478 35,100 960 Climbing Jacksonville Center
12:43PM 28.3208 -82.1356 345° North 410 472 37,000 1,440 Climbing Jacksonville Center
12:44PM 28.4233 -82.1681 344° North 397 457 38,000 480 Climbing Jacksonville Center
12:45PM 28.5278 -82.2028 344° North 385 443 38,000  Level Jacksonville Center
12:46PM 28.6325 -82.2350 345° North 385 443 38,000  Level Jacksonville Center
12:47PM 28.7369 -82.2697 344° North 385 443 38,000  Level Jacksonville Center
12:48PM 28.8436 -82.3025 345° North 380 437 38,000  Level Jacksonville Center
12:49PM 28.9500 -82.3372 344° North 380 437 38,000  Level Jacksonville Center
12:50PM 29.0461 -82.3628 347° North 386 444 38,000  Level Jacksonville Center
12:51PM 29.1550 -82.3981 344° North 391 450 38,000  Level Jacksonville Center
12:52PM 29.2636 -82.4356 343° North 396 456 38,000  Level Jacksonville Center
12:53PM 29.3744 -82.4683 346° North 401 461 38,000  Level Jacksonville Center
12:54PM 29.4850 -82.5036 344° North 401 461 38,000  Level Jacksonville Center
12:55PM 29.6106 -82.5439 344° North 408 470 38,000  Level Jacksonville Center
12:56PM 29.7233 -82.5817 344° North 418 481 38,000  Level Jacksonville Center
12:57PM 29.8383 -82.6197 344° North 424 488 38,000  Level Jacksonville Center
12:58PM 29.9531 -82.6578 344° North 424 488 38,000  Level Jacksonville Center
12:59PM 30.0639 -82.6908 346° North 418 481 38,000  Level Jacksonville Center
01:00PM 30.1767 -82.7292 344° North 418 481 38,000  Level Jacksonville Center
01:01PM 30.2914 -82.7650 345° North 418 481 38,000  Level Jacksonville Center
01:02PM 30.4042 -82.8036 344° North 418 481 38,000  Level Jacksonville Center
01:03PM 30.5169 -82.8419 344° North 418 481 38,000  Level Jacksonville Center
01:04PM 30.6153 -82.8756 344° North 418 481 38,000  Level Jacksonville Center
01:05PM 30.7300 -82.9167 343° North 418 481 38,000  Level Jacksonville Center
01:06PM 30.8533 -82.9578 344° North 418 481 38,000  Level Jacksonville Center
01:07PM 30.9597 -82.9869 347° North 418 481 38,000  Level Jacksonville Center
01:08PM 31.0683 -83.0308 341° North 418 481 38,000  Level Jacksonville Center
01:09PM 31.1892 -83.0600 348° North 418 481 38,000  Level Jacksonville Center
01:11PM 31.4783 -83.1622 343° North 428 493 38,000  Level Atlanta Center
01:12PM 31.5914 -83.2003 344° North 422 486 38,000  Level Atlanta Center
01:13PM 31.7044 -83.2383 344° North 422 486 38,000  Level Atlanta Center
01:14PM 31.8194 -83.2764 344° North 422 486 38,000  Level Atlanta Center
01:15PM 31.9322 -83.3144 344° North 422 486 38,000  Level Atlanta Center
01:16PM 32.0453 -83.3553 343° North 422 486 38,000  Level Atlanta Center
01:17PM 32.1603 -83.3936 344° North 422 486 38,000  Level Atlanta Center
01:18PM 32.2711 -83.4297 345° North 422 486 38,000  Level Atlanta Center
01:19PM 32.3797 -83.4683 343° North 417 480 38,000  Level Atlanta Center
01:20PM 32.4906 -83.5069 344° North 417 480 38,000  Level Atlanta Center
01:21PM 32.6014 -83.5458 344° North 417 480 38,000  Level Atlanta Center
01:22PM 32.7142 -83.5844 344° North 417 480 38,000  Level Atlanta Center
01:23PM 32.8272 -83.6236 344° North 422 486 38,000  Level Atlanta Center
01:24PM 32.9378 -83.6625 344° North 417 480 38,000  Level Atlanta Center
01:25PM 33.0508 -83.7042 343° North 417 480 38,000  Level Atlanta Center
01:26PM 33.1511 -83.7361 345° North 417 480 38,000  Level Atlanta Center
01:27PM 33.2722 -83.7781 344° North 417 480 38,000  Level Atlanta Center
01:28PM 33.3828 -83.8175 343° North 417 480 38,000  Level Atlanta Center
01:29PM 33.4914 -83.8544 344° North 417 480 38,000  Level Atlanta Center
01:30PM 33.6022 -83.8917 344° North 411 473 38,000  Level Atlanta Center
01:31PM 33.7128 -83.9314 343° North 411 473 38,000  Level Atlanta Center
01:32PM 33.8214 -83.9714 343° North 411 473 38,000  Level Atlanta Center
01:33PM 33.9342 -84.0114 344° North 418 481 38,000  Level Atlanta Center
01:34PM 34.0467 -84.0489 345° North 418 481 38,000  Level Atlanta Center
01:35PM 34.1594 -84.0889 344° North 423 487 38,000  Level Atlanta Center
01:36PM 34.2700 -84.1292 343° North 414 476 38,000  Level Atlanta Center
01:37PM 34.3828 -84.1697 343° North 414 476 38,000  Level Atlanta Center
01:38PM 34.4933 -84.2103 343° North 419 482 38,000  Level Atlanta Center
01:39PM 34.5997 -84.2483 344° North 419 482 38,000  Level Atlanta Center
01:40PM 34.7103 -84.2889 343° North 409 471 38,000  Level Atlanta Center
01:41PM 34.8186 -84.3272 344° North 403 464 38,000  Level Atlanta Center
01:42PM 34.9167 -84.3631 343° North 403 464 38,000  Level Atlanta Center
01:43PM 35.0292 -84.4092 341° North 393 452 38,000  Level Atlanta Center
01:44PM 35.1375 -84.4478 344° North 393 452 38,000  Level Atlanta Center
01:45PM 35.2458 -84.4889 343° North 399 459 38,000  Level Atlanta Center
01:46PM 35.3542 -84.5278 344° North 404 465 38,000  Level Atlanta Center
01:47PM 35.4625 -84.5667 344° North 404 465 38,000  Level Atlanta Center
01:48PM 35.5731 -84.6081 343° North 404 465 38,000  Level Atlanta Center
01:49PM 35.6792 -84.6472 343° North 404 465 38,000  Level Atlanta Center
01:50PM 35.7897 -84.6864 344° North 404 465 38,000  Level Atlanta Center
01:51PM 35.9000 -84.7233 345° North 404 465 38,000  Level Atlanta Center
01:52PM 36.0081 -84.7653 343° North 404 465 38,000  Level Atlanta Center
01:53PM 36.1019 -84.8044 341° North 404 465 38,000  Level Atlanta Center
01:53PM 36.1261 -84.8125 345° North 401 461 38,000  Level Indianapolis Center
01:54PM 36.2308 -84.8522 343° North 396 456 38,000  Level Indianapolis Center
01:55PM 36.3586 -84.9006 343° North 400 460 38,000  Level Indianapolis Center
01:56PM 36.4639 -84.9400 343° North 397 457 38,000  Level Indianapolis Center
01:57PM 36.5708 -84.9753 345° North 399 459 38,000  Level Indianapolis Center
01:58PM 36.6814 -84.9947 352° North 400 460 38,000  Level Indianapolis Center
01:59PM 36.7853 -85.0397 341° North 397 457 38,000  Level Indianapolis Center
02:01PM 36.8908 -85.0817 342° North 397 457 38,000  Level Indianapolis Center
02:02PM 36.9947 -85.1231 342° North 392 451 38,000  Level Indianapolis Center
02:03PM 37.1050 -85.1669 342° North 391 450 38,000  Level Indianapolis Center
02:04PM 37.2275 -85.2164 342° North 393 452 38,000  Level Indianapolis Center
02:05PM 37.3306 -85.2594 342° North 389 448 38,000  Level Indianapolis Center
02:06PM 37.4361 -85.3017 342° North 394 453 38,000  Level Indianapolis Center
02:07PM 37.5403 -85.3442 342° North 392 451 38,000  Level Indianapolis Center
02:08PM 37.6456 -85.3889 341° North 396 456 38,000  Level Indianapolis Center
02:09PM 37.7506 -85.4328 342° North 396 456 38,000  Level Indianapolis Center
02:10PM 37.8594 -85.4756 343° North 403 464 38,000 -60 Level Indianapolis Center
02:11PM 37.9642 -85.5200 342° North 398 458 37,900 -540 Descending Indianapolis Center
02:12PM 38.0692 -85.5625 342° North 395 455 36,900 -1,020 Descending Indianapolis Center
02:13PM 38.2014 -85.5947 349° North 406 467 35,800 -960 Descending Indianapolis Center
02:14PM 38.3117 -85.6178 351° North 402 463 35,000 -420 Descending Indianapolis Center
02:15PM 38.4219 -85.6378 352° North 400 460 35,000  Level Indianapolis Center
02:16PM 38.5322 -85.6594 351° North 400 460 35,000 -120 Level Indianapolis Center
02:17PM 38.6414 -85.6806 351° North 399 459 34,800 -600 Descending Indianapolis Center
02:18PM 38.7517 -85.7017 352° North 398 458 33,800 -1,020 Descending Indianapolis Center
02:19PM 38.8583 -85.7219 352° North 389 448 32,800 -1,140 Descending Indianapolis Center
02:20PM 38.9850 -85.7486 351° North 384 442 31,500 -1,140 Descending Indianapolis Center
02:21PM 39.0881 -85.7683 352° North 377 434 30,500 -960 Descending Indianapolis Center
02:22PM 39.1878 -85.7875 352° North 365 420 29,600 -780 Descending Indianapolis Center
02:23PM 39.2883 -85.8075 351° North 364 419 29,000 -300 Descending Indianapolis Center
02:24PM 39.3906 -85.8261 352° North 368 423 29,000  Level Indianapolis Center
02:25PM 39.4975 -85.8494 350° North 381 438 29,000  Level Indianapolis Center
02:26PM 39.6039 -85.8714 351° North 385 443 29,000  Level Indianapolis Center
02:27PM 39.7125 -85.8922 352° North 380 437 29,000 -300 Level Indianapolis Center
02:28PM 39.8147 -85.9128 351° North 373 429 28,400 -1,500 Descending Indianapolis Center
02:29PM 39.9256 -85.9344 351° North 349 402 26,000 -2,040 Descending Indianapolis Center
02:30PM 40.0142 -85.9533 351° North 335 386 24,300 -1,020 Descending Indianapolis Center
02:31PM 40.1053 -85.9722 351° North 332 382 24,000 -240 Descending Indianapolis Center
02:32PM 40.1358 -85.9767 354° North 333 383 24,000  Level Chicago Center
02:33PM 40.2533 -86.0019 351° North 356 410 24,000 -540 Level Chicago Center
02:34PM 40.3494 -86.0219 351° North 351 404 23,000 -1,020 Descending Chicago Center
02:35PM 40.4386 -86.0378 352° North 331 381 22,000 -1,260 Descending Chicago Center
02:36PM 40.5283 -86.0561 351° North 327 376 20,500 -1,560 Descending Chicago Center
02:37PM 40.6203 -86.0561 360° North 330 380 18,800 -1,380 Descending Chicago Center
02:38PM 40.7094 -86.0539 North 323 372 17,700 -1,140 Descending Chicago Center
02:39PM 40.8150 -86.0519 North 318 366 16,500 -1,080 Descending Chicago Center
02:40PM 40.9000 -86.0497 North 309 356 15,500 -960 Descending Chicago Center
02:41PM 40.9694 -86.0919 335° Northwest 299 344 14,500 -960 Descending Chicago Center
02:42PM 40.9936 -86.1933 288° West 288 331 13,500 -1,020 Descending Chicago Center
02:43PM 41.0164 -86.2928 287° West 283 326 12,500 -1,020 Descending Chicago Center
02:44PM 41.0386 -86.3894 287° West 276 318 11,500 -960 Descending Chicago Center
02:45PM 41.0853 -86.4897 302° West 273 314 10,600 -780 Descending Chicago Center
02:46PM 41.1297 -86.5586 311° West 252 290 10,000 -300 Descending Chicago Center
02:47PM 41.1761 -86.6297 311° West 253 291 10,000  Level Chicago Center
02:48PM 41.2217 -86.7017 310° West 255 293 10,000  Level Chicago Center
02:49PM 41.2736 -86.7806 311° West 255 293 10,000  Level Chicago Center
02:50PM 41.3192 -86.8519 310° West 254 292 10,000  Level Chicago Center
02:52PM 41.3644 -86.9219 311° West 253 291 10,000 -780 Level Chicago Center
02:53PM 41.3883 -87.0078 290° West 254 292 8,400 -1,680 Descending Chicago Center
02:54PM 41.4117 -87.1156 286° West 254 292 6,600 -1,440 Descending Chicago Center
02:54PM 41.4333 -87.1667 299° West 248 285 6,000 -960 Descending Chicago TRACON
02:55PM 41.4667 -87.2500 298° West 249 287 5,000 -1,020 Descending Chicago TRACON
02:56PM 41.5167 -87.3167 315° West 252 290 4,000 -480 Descending Chicago TRACON
02:57PM 41.5500 -87.4000 298° West 250 288 4,100 -120 Climbing Chicago TRACON
02:58PM 41.5678 -87.4133 331° Northwest 249 287 3,900 -180 Descending Chicago Center
02:59PM 41.6178 -87.5008 307° West 249 287 3,900  Level Chicago Center
03:00PM 41.6564 -87.5706 307° West 245 282 3,900 -420 Level Chicago Center
03:01PM 41.6914 -87.6233 312° West 216 249 3,100 -960 Descending Chicago Center
03:01PM 41.7167 -87.6500 322° Northwest 207 238 2,500 -720 Descending Chicago TRACON
03:02PM 41.7667 -87.6833 334° Northwest 191 220 2,000 -420 Descending Chicago TRACON
03:03PM 41.8000 -87.6833 360° North 156 180 1,700 -600 Descending Chicago TRACON
03:04PM 41.8000 -87.7333 270° West 137 158 900 -840 Descending Chicago TRACON